createdAt,value
2018-08-19T00:02:46.797Z,99381.77
2018-08-19T00:05:52.038Z,99386.95
2018-08-19T00:09:01.578Z,99379.08
2018-08-19T00:12:06.512Z,99378.67
2018-08-19T00:15:11.487Z,99374.80
2018-08-19T00:18:16.404Z,99375.79
2018-08-19T00:21:21.305Z,99371.20
2018-08-19T00:24:26.217Z,99369.13
2018-08-19T00:27:31.148Z,99373.69
2018-08-19T00:30:36.084Z,99368.02
2018-08-19T00:33:41.016Z,99371.71
2018-08-19T00:36:45.909Z,99362.06
2018-08-19T00:39:52.128Z,99363.14
2018-08-19T00:42:57.369Z,99370.71
2018-08-19T00:46:13.080Z,99369.02
2018-08-19T00:49:17.989Z,99370.59
2018-08-19T00:52:22.888Z,99371.41
2018-08-19T00:55:31.005Z,99375.87
2018-08-19T00:58:37.585Z,99374.39
2018-08-19T01:01:44.044Z,99371.09
2018-08-19T01:04:49.898Z,99372.09
2018-08-19T01:07:54.788Z,99365.80
2018-08-19T01:10:59.721Z,99369.55
2018-08-19T01:14:07.508Z,99379.95
2018-08-19T01:17:12.413Z,99381.05
2018-08-19T01:20:19.336Z,99385.15
2018-08-19T01:23:24.270Z,99382.76
2018-08-19T01:26:32.468Z,99392.33
2018-08-19T01:29:42.748Z,99385.34
2018-08-19T01:32:47.757Z,99387.75
2018-08-19T01:35:52.684Z,99391.75
2018-08-19T01:38:57.758Z,99394.91
2018-08-19T01:42:02.721Z,99397.30
2018-08-19T01:45:08.633Z,99391.13
2018-08-19T01:48:13.508Z,99401.67
2018-08-19T01:51:18.425Z,99397.16
2018-08-19T01:54:23.877Z,99404.23
2018-08-19T01:57:34.550Z,99407.82
2018-08-19T02:00:39.500Z,99405.95
2018-08-19T02:03:45.013Z,99405.75
2018-08-19T02:06:49.964Z,99408.73
2018-08-19T02:10:03.154Z,99405.67
2018-08-19T02:13:08.045Z,99400.95
2018-08-19T02:16:12.984Z,99402.53
2018-08-19T02:19:17.933Z,99404.75
2018-08-19T02:22:22.833Z,99404.75
2018-08-19T02:25:36.053Z,99403.54
2018-08-19T02:28:40.941Z,99409.11
2018-08-19T02:31:45.829Z,99410.69
2018-08-19T02:34:50.757Z,99405.92
2018-08-19T02:37:55.689Z,99411.78
2018-08-19T02:41:00.637Z,99408.59
2018-08-19T02:44:05.869Z,99402.41
2018-08-19T02:47:10.784Z,99403.59
2018-08-19T02:50:28.656Z,99401.25
2018-08-19T02:53:33.589Z,99408.03
2018-08-19T02:56:38.626Z,99400.61
2018-08-19T02:59:43.552Z,99404.60
2018-08-19T03:02:48.432Z,99409.45
2018-08-19T03:05:55.861Z,99405.41
2018-08-19T03:09:00.802Z,99405.89
2018-08-19T03:12:08.734Z,99403.31
2018-08-19T03:15:14.894Z,99408.08
2018-08-19T03:18:19.746Z,99402.59
2018-08-19T03:21:24.709Z,99402.30
2018-08-19T03:24:29.622Z,99400.69
2018-08-19T03:27:34.504Z,99404.28
2018-08-19T03:30:45.540Z,99396.25
2018-08-19T03:33:50.450Z,99397.05
2018-08-19T03:36:56.377Z,99395.31
2018-08-19T03:40:01.257Z,99391.92
2018-08-19T03:43:06.193Z,99390.15
2018-08-19T03:46:16.837Z,99388.12
2018-08-19T03:49:22.544Z,99390.50
2018-08-19T03:52:27.465Z,99387.31
2018-08-19T03:55:33.005Z,99392.36
2018-08-19T03:58:37.888Z,99393.44
2018-08-19T04:01:44.760Z,99393.20
2018-08-19T04:04:49.653Z,99392.54
2018-08-19T04:07:54.549Z,99385.88
2018-08-19T04:10:59.468Z,99386.67
2018-08-19T04:14:19.261Z,99391.65
2018-08-19T04:17:24.182Z,99386.16
2018-08-19T04:20:29.061Z,99385.61
2018-08-19T04:23:34.474Z,99384.72
2018-08-19T04:26:39.357Z,99389.61
2018-08-19T04:29:44.277Z,99386.17
2018-08-19T04:32:49.205Z,99384.37
2018-08-19T04:35:54.092Z,99380.99
2018-08-19T04:38:58.992Z,99383.36
2018-08-19T04:42:03.929Z,99383.16
2018-08-19T04:45:08.846Z,99384.16
2018-08-19T04:48:13.740Z,99381.95
2018-08-19T04:51:18.630Z,99379.34
2018-08-19T04:54:23.551Z,99382.08
2018-08-19T04:57:28.457Z,99387.36
2018-08-19T05:00:33.357Z,99389.02
2018-08-19T05:03:38.281Z,99396.81
2018-08-19T05:06:43.161Z,99402.59
2018-08-19T05:09:48.080Z,99399.52
2018-08-19T05:12:53.225Z,99403.31
2018-08-19T05:15:59.780Z,99409.02
2018-08-19T05:19:04.847Z,99408.53
2018-08-19T05:22:17.416Z,99405.48
2018-08-19T05:25:30.322Z,99404.63
2018-08-19T05:28:35.225Z,99404.28
2018-08-19T05:31:44.100Z,99401.21
2018-08-19T05:34:49.021Z,99401.92
2018-08-19T05:37:54.751Z,99400.23
2018-08-19T05:41:00.670Z,99407.03
2018-08-19T05:44:05.581Z,99399.03
2018-08-19T05:47:11.822Z,99399.58
2018-08-19T05:50:16.713Z,99394.39
2018-08-19T05:53:21.871Z,99391.63
2018-08-19T05:56:26.843Z,99391.25
2018-08-19T05:59:31.769Z,99388.69
2018-08-19T06:02:41.517Z,99388.59
2018-08-19T06:05:46.414Z,99382.83
2018-08-19T06:08:52.661Z,99375.27
2018-08-19T06:11:57.582Z,99377.61
2018-08-19T06:15:02.579Z,99375.32
2018-08-19T06:18:08.332Z,99382.50
2018-08-19T06:21:13.297Z,99383.86
2018-08-19T06:24:20.433Z,99389.02
2018-08-19T06:27:29.937Z,99391.09
2018-08-19T06:30:34.877Z,99391.94
2018-08-19T06:33:39.807Z,99384.45
2018-08-19T06:36:44.725Z,99387.34
2018-08-19T06:39:50.741Z,99391.98
2018-08-19T06:42:55.671Z,99390.82
2018-08-19T06:46:00.597Z,99379.03
2018-08-19T06:49:12.065Z,99380.07
2018-08-19T06:52:17.243Z,99378.72
2018-08-19T06:55:22.374Z,99373.92
2018-08-19T06:58:27.401Z,99375.87
2018-08-19T07:01:32.360Z,99375.42
2018-08-19T07:04:45.987Z,99375.89
2018-08-19T07:07:50.961Z,99377.72
2018-08-19T07:10:55.984Z,99374.39
2018-08-19T07:14:00.941Z,99371.41
2018-08-19T07:17:06.181Z,99373.72
2018-08-19T07:20:11.125Z,99363.94
2018-08-19T07:23:16.064Z,99371.25
2018-08-19T07:26:21.017Z,99371.86
2018-08-19T07:29:27.316Z,99371.66
2018-08-19T07:32:32.237Z,99374.23
2018-08-19T07:35:37.220Z,99366.60
2018-08-19T07:38:42.157Z,99374.93
2018-08-19T07:41:54.440Z,99369.86
2018-08-19T07:45:03.257Z,99365.97
2018-08-19T07:48:08.251Z,99361.25
2018-08-19T07:51:13.256Z,99359.32
2018-08-19T07:54:18.161Z,99363.25
2018-08-19T07:57:24.589Z,99358.72
2018-08-19T08:00:35.596Z,99357.34
2018-08-19T08:03:40.525Z,99353.73
2018-08-19T08:06:45.460Z,99352.91
2018-08-19T08:09:50.402Z,99351.20
2018-08-19T08:12:59.934Z,99355.69
2018-08-19T08:16:04.922Z,99350.58
2018-08-19T08:19:09.944Z,99355.25
2018-08-19T08:22:15.008Z,99352.27
2018-08-19T08:25:19.953Z,99353.79
2018-08-19T08:28:24.920Z,99350.63
2018-08-19T08:31:29.858Z,99348.09
2018-08-19T08:34:35.085Z,99353.87
2018-08-19T08:37:40.936Z,99352.97
2018-08-19T08:40:46.005Z,99346.55
2018-08-19T08:43:51.117Z,99352.61
2018-08-19T08:46:59.243Z,99352.64
2018-08-19T08:50:04.284Z,99344.91
2018-08-19T08:53:09.265Z,99339.34
2018-08-19T08:56:14.402Z,99327.11
2018-08-19T08:59:19.364Z,99332.49
2018-08-19T09:02:24.428Z,99331.17
2018-08-19T09:05:29.450Z,99328.58
2018-08-19T09:08:34.441Z,99325.41
2018-08-19T09:11:39.416Z,99335.52
2018-08-19T09:14:44.664Z,99336.95
2018-08-19T09:17:49.838Z,99325.10
2018-08-19T09:20:54.932Z,99333.38
2018-08-19T09:23:59.940Z,99333.83
2018-08-19T09:27:04.985Z,99326.14
2018-08-19T09:30:13.494Z,99321.79
2018-08-19T09:33:18.493Z,99317.29
2018-08-19T09:36:23.456Z,99313.40
2018-08-19T09:39:28.900Z,99313.92
2018-08-19T09:42:33.899Z,99306.45
2018-08-19T09:45:39.207Z,99303.31
2018-08-19T09:48:44.169Z,99301.46
2018-08-19T09:51:49.129Z,99304.47
2018-08-19T09:54:57.185Z,99292.02
2018-08-19T09:58:02.220Z,99295.90
2018-08-19T10:01:12.993Z,99291.45
2018-08-19T10:04:24.060Z,99289.36
2018-08-19T10:07:29.120Z,99281.33
2018-08-19T10:10:35.264Z,99288.12
2018-08-19T10:13:40.269Z,99289.05
2018-08-19T10:16:46.153Z,99281.86
2018-08-19T10:19:51.101Z,99276.09
2018-08-19T10:22:56.789Z,99276.15
2018-08-19T10:26:01.717Z,99274.30
2018-08-19T10:29:06.965Z,99268.55
2018-08-19T10:32:11.986Z,99266.00
2018-08-19T10:35:18.418Z,99267.77
2018-08-19T10:38:23.369Z,99263.66
2018-08-19T10:41:28.312Z,99261.00
2018-08-19T10:44:33.236Z,99264.19
2018-08-19T10:47:38.193Z,99263.19
2018-08-19T10:50:43.130Z,99256.34
2018-08-19T10:53:48.036Z,99256.38
2018-08-19T10:56:53.572Z,99255.92
2018-08-19T10:59:59.133Z,99250.11
2018-08-19T11:03:23.091Z,99244.34
2018-08-19T11:06:28.077Z,99240.42
2018-08-19T11:09:43.340Z,99233.73
2018-08-19T11:12:51.734Z,99237.19
2018-08-19T11:15:57.685Z,99229.25
2018-08-19T11:19:02.616Z,99230.57
2018-08-19T11:22:07.497Z,99223.13
2018-08-19T11:25:12.488Z,99217.39
2018-08-19T11:28:23.604Z,99215.28
2018-08-19T11:31:33.028Z,99215.23
2018-08-19T11:34:37.874Z,99206.35
2018-08-19T11:37:42.793Z,99208.97
2018-08-19T11:40:47.953Z,99203.59
2018-08-19T11:43:52.939Z,99214.27
2018-08-19T11:46:57.861Z,99216.49
2018-08-19T11:50:02.909Z,99199.64
2018-08-19T11:53:07.864Z,99198.80
2018-08-19T11:56:13.585Z,99199.63
2018-08-19T11:59:18.540Z,99194.74
2018-08-19T12:02:24.329Z,99188.13
2018-08-19T12:05:29.258Z,99186.84
2018-08-19T12:08:34.152Z,99189.95
2018-08-19T12:11:40.159Z,99178.16
2018-08-19T12:14:45.118Z,99178.56
2018-08-19T12:17:50.020Z,99184.34
2018-08-19T12:20:54.921Z,99183.44
2018-08-19T12:24:14.375Z,99165.20
2018-08-19T12:27:21.448Z,99163.88
2018-08-19T12:30:30.344Z,99164.81
2018-08-19T12:33:35.292Z,99161.72
2018-08-19T12:36:40.245Z,99160.92
2018-08-19T12:39:45.488Z,99153.38
2018-08-19T12:42:53.536Z,99136.15
2018-08-19T12:45:59.121Z,99148.95
2018-08-19T12:49:04.249Z,99145.84
2018-08-19T12:52:10.547Z,99132.19
2018-08-19T12:55:15.901Z,99132.21
2018-08-19T12:58:20.936Z,99135.30
2018-08-19T13:01:25.884Z,99134.86
2018-08-19T13:04:30.861Z,99133.08
2018-08-19T13:07:35.822Z,99131.31
2018-08-19T13:10:46.671Z,99107.88
2018-08-19T13:13:51.635Z,99131.30
2018-08-19T13:16:56.591Z,99123.38
2018-08-19T13:20:05.324Z,99123.34
2018-08-19T13:23:10.267Z,99113.65
2018-08-19T13:26:15.190Z,99095.52
2018-08-19T13:29:20.118Z,99095.97
2018-08-19T13:32:25.064Z,99093.33
2018-08-19T13:35:30.030Z,99095.98
2018-08-19T13:38:37.174Z,99086.26
2018-08-19T13:41:42.184Z,99084.02
2018-08-19T13:44:47.116Z,99082.64
2018-08-19T13:47:53.301Z,99074.24
2018-08-19T13:50:58.257Z,99067.16
2018-08-19T13:54:03.232Z,99065.02
2018-08-19T13:57:08.186Z,99062.34
2018-08-19T14:00:16.468Z,99052.20
2018-08-19T14:03:21.496Z,99056.17
2018-08-19T14:06:26.524Z,99061.48
2018-08-19T14:09:31.498Z,99049.98
2018-08-19T14:12:36.454Z,99042.94
2018-08-19T14:15:41.433Z,99051.31
2018-08-19T14:18:46.405Z,99047.80
2018-08-19T14:21:51.403Z,99044.25
2018-08-19T14:24:56.382Z,99046.94
2018-08-19T14:28:01.365Z,99038.09
2018-08-19T14:31:06.388Z,99049.13
2018-08-19T14:34:11.380Z,99051.78
2018-08-19T14:37:16.369Z,99049.16
2018-08-19T14:40:21.486Z,99053.12
2018-08-19T14:43:26.325Z,99054.89
2018-08-19T14:46:32.365Z,99038.97
2018-08-19T14:49:37.405Z,99037.20
2018-08-19T14:52:42.449Z,99046.47
2018-08-19T14:55:47.457Z,99037.18
2018-08-19T14:58:52.436Z,99041.61
2018-08-19T15:01:57.364Z,99034.53
2018-08-19T15:05:02.353Z,99038.98
2018-08-19T15:08:11.897Z,99033.68
2018-08-19T15:11:16.832Z,99034.55
2018-08-19T15:14:21.832Z,99037.16
2018-08-19T15:17:26.812Z,99035.84
2018-08-19T15:20:33.118Z,99033.66
2018-08-19T15:23:38.058Z,99024.38
2018-08-19T15:26:42.985Z,99023.48
2018-08-19T15:29:50.533Z,99027.92
2018-08-19T15:32:55.818Z,99030.55
2018-08-19T15:36:00.378Z,99025.25
2018-08-19T15:39:07.048Z,99025.69
2018-08-19T15:42:12.008Z,99029.66
2018-08-19T15:45:17.160Z,99021.72
2018-08-19T15:48:22.141Z,99017.73
2018-08-19T15:51:27.077Z,99015.53
2018-08-19T15:54:32.034Z,99012.89
2018-08-19T15:57:36.985Z,99005.80
2018-08-19T16:00:41.985Z,99007.52
2018-08-19T16:03:46.958Z,99011.13
2018-08-19T16:06:53.445Z,99006.67
2018-08-19T16:09:58.449Z,98996.06
2018-08-19T16:13:05.573Z,99007.06
2018-08-19T16:16:15.437Z,98998.66
2018-08-19T16:19:20.533Z,98997.74
2018-08-19T16:22:25.492Z,99003.89
2018-08-19T16:25:30.517Z,98993.80
2018-08-19T16:28:35.525Z,98994.63
2018-08-19T16:31:40.781Z,98985.81
2018-08-19T16:34:45.793Z,98980.93
2018-08-19T16:37:50.824Z,98983.55
2018-08-19T16:40:55.825Z,98986.59
2018-08-19T16:44:08.973Z,98979.95
2018-08-19T16:47:13.961Z,98976.41
2018-08-19T16:50:19.038Z,98974.19
2018-08-19T16:53:24.001Z,98980.37
2018-08-19T16:56:28.962Z,98973.80
2018-08-19T16:59:34.361Z,98977.71
2018-08-19T17:02:39.342Z,98976.36
2018-08-19T17:05:44.276Z,98972.86
2018-08-19T17:08:49.269Z,98967.58
2018-08-19T17:11:54.581Z,98973.24
2018-08-19T17:14:59.540Z,98978.00
2018-08-19T17:18:04.494Z,98968.34
2018-08-19T17:21:09.489Z,98969.28
2018-08-19T17:24:14.446Z,98974.52
2018-08-19T17:27:19.377Z,98972.78
2018-08-19T17:30:24.352Z,98975.41
2018-08-19T17:33:30.521Z,98975.27
2018-08-19T17:36:35.470Z,98975.25
2018-08-19T17:39:40.540Z,98971.66
2018-08-19T17:42:45.403Z,98982.12
2018-08-19T17:45:51.153Z,98989.91
2018-08-19T17:48:55.978Z,98987.14
2018-08-19T17:52:01.013Z,98982.98
2018-08-19T17:55:06.002Z,98986.57
2018-08-19T17:58:10.922Z,98983.31
2018-08-19T18:01:16.232Z,98988.47
2018-08-19T18:04:21.548Z,98988.80
2018-08-19T18:07:27.585Z,98985.14
2018-08-19T18:10:32.537Z,98989.44
2018-08-19T18:13:37.452Z,98993.48
2018-08-19T18:16:42.361Z,98996.34
2018-08-19T18:19:47.292Z,98988.24
2018-08-19T18:22:53.656Z,98993.18
2018-08-19T18:25:58.621Z,98995.98
2018-08-19T18:29:03.636Z,98995.19
2018-08-19T18:32:08.653Z,98999.77
2018-08-19T18:35:13.645Z,99001.20
2018-08-19T18:38:28.773Z,99003.92
2018-08-19T18:41:35.201Z,99011.14
2018-08-19T18:44:40.136Z,99006.25
2018-08-19T18:47:51.399Z,99014.75
2018-08-19T18:50:56.357Z,99018.82
2018-08-19T18:54:01.595Z,99020.19
2018-08-19T18:57:07.555Z,99026.19
2018-08-19T19:00:12.497Z,99027.03
2018-08-19T19:03:17.458Z,99029.44
2018-08-19T19:06:22.421Z,99033.30
2018-08-19T19:09:35.847Z,99041.53
2018-08-19T19:12:40.754Z,99041.28
2018-08-19T19:15:46.505Z,99039.14
2018-08-19T19:18:51.801Z,99042.88
2018-08-19T19:21:59.520Z,99046.87
2018-08-19T19:25:04.474Z,99044.68
2018-08-19T19:28:09.426Z,99044.91
2018-08-19T19:31:15.640Z,99051.19
2018-08-19T19:34:20.633Z,99056.56
2018-08-19T19:37:25.530Z,99055.60
2018-08-19T19:40:30.862Z,99056.94
2018-08-19T19:43:35.768Z,99061.05
2018-08-19T19:46:40.690Z,99068.23
2018-08-19T19:49:51.390Z,99072.01
2018-08-19T19:52:57.012Z,99067.59
2018-08-19T19:56:07.585Z,99067.53
2018-08-19T19:59:12.509Z,99072.15
2018-08-19T20:02:22.393Z,99072.45
2018-08-19T20:05:27.300Z,99072.97
2018-08-19T20:08:32.213Z,99074.17
2018-08-19T20:11:37.990Z,99076.36
2018-08-19T20:14:47.500Z,99075.06
2018-08-19T20:17:52.411Z,99077.93
2018-08-19T20:20:57.366Z,99082.48
2018-08-19T20:24:02.600Z,99082.14
2018-08-19T20:27:07.924Z,99089.75
2018-08-19T20:30:12.860Z,99089.52
2018-08-19T20:33:25.217Z,99088.72
2018-08-19T20:36:30.149Z,99092.89
2018-08-19T20:39:35.070Z,99095.12
2018-08-19T20:42:40.020Z,99096.08
2018-08-19T20:45:45.432Z,99094.06
2018-08-19T20:48:50.341Z,99098.69
2018-08-19T20:51:55.804Z,99099.74
2018-08-19T20:55:00.704Z,99103.09
2018-08-19T20:58:05.668Z,99106.15
2018-08-19T21:01:41.937Z,99104.45
2018-08-19T21:04:46.889Z,99098.25
2018-08-19T21:07:56.940Z,99100.95
2018-08-19T21:11:01.869Z,99101.30
2018-08-19T21:14:06.805Z,99103.67
2018-08-19T21:17:11.744Z,99104.02
2018-08-19T21:20:16.764Z,99101.33
2018-08-19T21:23:21.684Z,99108.89
2018-08-19T21:26:26.610Z,99111.27
2018-08-19T21:29:32.017Z,99116.89
2018-08-19T21:32:36.937Z,99116.13
2018-08-19T21:35:47.768Z,99119.84
2018-08-19T21:38:52.705Z,99109.78
2018-08-19T21:41:57.687Z,99119.34
2018-08-19T21:45:02.707Z,99114.69
2018-08-19T21:48:11.650Z,99123.67
2018-08-19T21:51:16.580Z,99119.95
2018-08-19T21:54:21.508Z,99120.60
2018-08-19T21:57:26.448Z,99125.89
2018-08-19T22:04:39.736Z,99127.36
2018-08-19T22:07:44.665Z,99122.66
2018-08-19T22:10:49.616Z,99120.52
2018-08-19T22:13:54.516Z,99121.36
2018-08-19T22:17:05.269Z,99122.91
2018-08-19T22:20:10.180Z,99121.03
2018-08-19T22:23:15.069Z,99123.84
2018-08-19T22:26:20.748Z,99123.96
2018-08-19T22:29:25.678Z,99116.31
2018-08-19T22:32:32.541Z,99115.27
2018-08-19T22:35:37.445Z,99115.49
2018-08-19T22:38:50.224Z,99113.36
2018-08-19T22:41:55.135Z,99113.77
2018-08-19T22:45:00.047Z,99113.64
2018-08-19T22:48:13.004Z,99118.59
2018-08-19T22:51:17.958Z,99115.90
2018-08-19T22:54:22.857Z,99117.62
2018-08-19T22:57:28.021Z,99121.71
2018-08-19T23:00:32.996Z,99121.95
2018-08-19T23:03:37.924Z,99118.66
2018-08-19T23:06:42.872Z,99121.17
2018-08-19T23:09:47.826Z,99120.64
2018-08-19T23:12:52.739Z,99113.53
2018-08-19T23:15:57.677Z,99117.25
2018-08-19T23:19:02.589Z,99120.36
2018-08-19T23:22:07.553Z,99119.71
2018-08-19T23:25:12.492Z,99122.83
2018-08-19T23:28:17.679Z,99119.02
2018-08-19T23:31:22.629Z,99115.53
2018-08-19T23:34:27.738Z,99122.69
2018-08-19T23:37:32.672Z,99118.23
2018-08-19T23:40:37.649Z,99114.42
2018-08-19T23:43:42.574Z,99115.25
2018-08-19T23:46:47.512Z,99113.77
2018-08-19T23:49:52.420Z,99120.77
2018-08-19T23:52:57.352Z,99119.33
2018-08-19T23:56:02.321Z,99122.72
2018-08-19T23:59:07.244Z,99124.84
